createdAt,value
2019-03-16T00:03:58.211Z,10.45
2019-03-16T00:09:00.319Z,10.43
2019-03-16T00:14:02.487Z,10.50
2019-03-16T00:19:05.203Z,10.69
2019-03-16T00:24:07.366Z,10.63
2019-03-16T00:29:09.483Z,9.91
2019-03-16T00:34:11.541Z,9.78
2019-03-16T00:39:13.705Z,9.67
2019-03-16T00:44:15.784Z,9.49
2019-03-16T00:49:17.872Z,9.54
2019-03-16T00:54:21.393Z,9.46
2019-03-16T00:59:23.416Z,9.40
2019-03-16T01:04:25.729Z,9.39
2019-03-16T01:09:28.400Z,9.31
2019-03-16T01:14:30.463Z,9.19
2019-03-16T01:19:32.513Z,9.33
2019-03-16T01:24:34.710Z,9.26
2019-03-16T01:29:37.005Z,9.22
2019-03-16T01:34:39.109Z,9.00
2019-03-16T01:39:41.533Z,9.04
2019-03-16T01:44:44.044Z,9.14
2019-03-16T01:49:46.098Z,9.09
2019-03-16T01:54:50.162Z,9.15
2019-03-16T01:59:52.802Z,9.17
2019-03-16T02:04:54.980Z,9.18
2019-03-16T02:09:57.311Z,9.08
2019-03-16T02:14:59.378Z,9.16
2019-03-16T02:20:02.400Z,9.11
2019-03-16T02:25:04.659Z,9.17
2019-03-16T02:30:07.017Z,9.19
2019-03-16T02:35:09.327Z,9.18
2019-03-16T02:40:11.583Z,9.20
2019-03-16T02:45:13.735Z,9.18
2019-03-16T02:50:16.185Z,9.17
2019-03-16T02:55:18.228Z,9.17
2019-03-16T03:00:20.219Z,9.19
2019-03-16T03:05:22.471Z,9.17
2019-03-16T03:10:24.638Z,9.16
2019-03-16T03:15:26.804Z,9.11
2019-03-16T03:20:28.910Z,9.03
2019-03-16T03:25:30.989Z,9.02
2019-03-16T03:30:33.093Z,8.93
2019-03-16T03:35:35.180Z,8.96
2019-03-16T03:40:37.341Z,8.80
2019-03-16T03:45:39.424Z,8.78
2019-03-16T03:50:41.848Z,8.67
2019-03-16T03:55:44.484Z,8.74
2019-03-16T04:00:46.536Z,8.61
2019-03-16T04:05:48.640Z,8.54
2019-03-16T04:10:50.857Z,8.56
2019-03-16T04:15:52.918Z,8.61
2019-03-16T04:20:55.030Z,8.46
2019-03-16T04:25:57.622Z,8.51
2019-03-16T04:30:59.769Z,8.56
2019-03-16T04:36:01.936Z,8.41
2019-03-16T04:41:06.218Z,8.47
2019-03-16T04:46:08.317Z,8.41
2019-03-16T04:51:10.340Z,8.39
2019-03-16T04:56:12.519Z,8.45
2019-03-16T05:01:14.565Z,8.46
2019-03-16T05:06:16.582Z,8.36
2019-03-16T05:11:18.657Z,8.45
2019-03-16T05:16:20.744Z,8.42
2019-03-16T05:21:23.134Z,8.44
2019-03-16T05:26:25.291Z,8.44
2019-03-16T05:31:27.389Z,8.45
2019-03-16T05:36:29.841Z,8.52
2019-03-16T05:41:32.108Z,8.50
2019-03-16T05:46:34.186Z,8.48
2019-03-16T05:51:36.303Z,8.47
2019-03-16T05:56:38.504Z,8.44
2019-03-16T06:01:40.945Z,8.52
2019-03-16T06:06:43.059Z,8.46
2019-03-16T06:11:45.160Z,8.59
2019-03-16T06:16:47.203Z,8.72
2019-03-16T06:21:49.673Z,8.62
2019-03-16T06:26:51.807Z,8.76
2019-03-16T06:31:54.252Z,8.77
2019-03-16T06:36:56.358Z,8.90
2019-03-16T06:41:58.721Z,9.08
2019-03-16T06:47:00.863Z,9.20
2019-03-16T06:52:03.121Z,9.56
2019-03-16T06:57:05.442Z,9.77
2019-03-16T07:02:08.442Z,9.88
2019-03-16T07:07:10.514Z,10.02
2019-03-16T07:12:12.500Z,10.11
2019-03-16T07:17:14.556Z,10.19
2019-03-16T07:22:16.945Z,10.16
2019-03-16T07:27:25.963Z,10.25
2019-03-16T07:32:22.990Z,10.31
2019-03-16T07:37:31.784Z,10.25
2019-03-16T07:42:29.677Z,10.18
2019-03-16T07:47:32.032Z,10.17
2019-03-16T07:52:39.304Z,10.17
2019-03-16T07:57:42.173Z,10.29
2019-03-16T08:02:44.540Z,10.29
2019-03-16T08:07:46.629Z,10.32
2019-03-16T08:12:49.338Z,10.38
2019-03-16T08:17:51.445Z,10.35
2019-03-16T08:22:53.544Z,10.21
2019-03-16T08:27:56.162Z,10.21
2019-03-16T08:32:58.197Z,10.23
2019-03-16T08:38:02.575Z,10.33
2019-03-16T08:43:05.010Z,10.40
2019-03-16T08:48:07.058Z,10.43
2019-03-16T08:53:09.714Z,10.53
2019-03-16T08:58:11.859Z,10.70
2019-03-16T09:03:14.382Z,10.58
2019-03-16T09:08:16.893Z,10.58
2019-03-16T09:13:19.107Z,10.66
2019-03-16T09:18:21.407Z,10.73
2019-03-16T09:23:23.742Z,10.78
2019-03-16T09:28:25.934Z,10.80
2019-03-16T09:33:28.361Z,10.88
2019-03-16T09:38:31.023Z,10.88
2019-03-16T09:43:33.808Z,10.98
2019-03-16T09:48:35.888Z,11.18
2019-03-16T09:53:38.045Z,11.24
2019-03-16T09:58:40.217Z,11.37
2019-03-16T10:03:42.373Z,11.64
2019-03-16T10:08:45.006Z,11.44
2019-03-16T10:13:47.125Z,11.65
2019-03-16T10:18:49.331Z,11.47
2019-03-16T10:23:51.529Z,11.48
2019-03-16T10:28:53.609Z,11.90
2019-03-16T10:33:55.889Z,11.90
2019-03-16T10:38:58.092Z,11.87
2019-03-16T10:44:00.201Z,11.97
2019-03-16T10:49:02.280Z,11.88
2019-03-16T10:54:04.404Z,11.66
2019-03-16T10:59:06.477Z,11.60
2019-03-16T11:04:08.972Z,11.58
2019-03-16T11:09:11.024Z,11.51
2019-03-16T11:14:13.127Z,11.51
2019-03-16T11:19:15.236Z,11.58
2019-03-16T11:24:17.294Z,11.60
2019-03-16T11:29:21.054Z,11.67
2019-03-16T11:34:23.168Z,11.78
2019-03-16T11:39:25.440Z,11.92
2019-03-16T11:44:27.921Z,12.01
2019-03-16T11:49:30.629Z,11.87
2019-03-16T11:54:32.779Z,11.91
2019-03-16T11:59:35.009Z,11.89
2019-03-16T12:04:37.182Z,11.76
2019-03-16T12:09:39.467Z,11.67
2019-03-16T12:14:41.595Z,11.82
2019-03-16T12:19:43.802Z,11.96
2019-03-16T12:24:45.965Z,11.61
2019-03-16T12:29:48.124Z,11.61
2019-03-16T12:34:50.367Z,11.50
2019-03-16T12:39:52.535Z,11.50
2019-03-16T12:44:54.692Z,11.62
2019-03-16T12:49:56.782Z,11.83
2019-03-16T12:54:58.895Z,11.73
2019-03-16T13:00:01.016Z,11.63
2019-03-16T13:05:03.210Z,11.62
2019-03-16T13:10:06.792Z,11.60
2019-03-16T13:15:09.199Z,11.41
2019-03-16T13:20:11.921Z,11.36
2019-03-16T13:25:14.154Z,11.29
2019-03-16T13:30:16.718Z,11.09
2019-03-16T13:35:18.904Z,11.09
2019-03-16T13:40:21.049Z,10.91
2019-03-16T13:45:23.174Z,10.95
2019-03-16T13:50:25.364Z,10.87
2019-03-16T13:55:27.770Z,10.79
2019-03-16T14:00:29.975Z,10.86
2019-03-16T14:05:32.425Z,10.86
2019-03-16T14:10:34.502Z,10.93
2019-03-16T14:15:36.659Z,10.93
2019-03-16T14:20:39.172Z,10.91
2019-03-16T14:25:41.516Z,10.71
2019-03-16T14:30:45.196Z,10.65
2019-03-16T14:35:47.533Z,10.77
2019-03-16T14:40:49.661Z,10.77
2019-03-16T14:45:51.818Z,10.86
2019-03-16T14:50:54.207Z,10.86
2019-03-16T14:55:56.565Z,10.95
2019-03-16T15:00:58.661Z,10.93
2019-03-16T15:06:00.815Z,10.96
2019-03-16T15:11:03.161Z,11.06
2019-03-16T15:16:05.322Z,11.20
2019-03-16T15:21:07.681Z,11.18
2019-03-16T15:26:09.725Z,11.33
2019-03-16T15:31:11.753Z,11.31
2019-03-16T15:36:15.061Z,11.17
2019-03-16T15:41:17.131Z,11.08
2019-03-16T15:46:19.393Z,10.96
2019-03-16T15:51:23.913Z,10.96
2019-03-16T15:56:27.722Z,10.96
2019-03-16T16:01:29.633Z,11.00
2019-03-16T16:06:31.769Z,10.98
2019-03-16T16:11:33.863Z,10.92
2019-03-16T16:16:35.981Z,10.91
2019-03-16T16:21:38.048Z,10.91
2019-03-16T16:26:40.485Z,10.75
2019-03-16T16:31:43.076Z,10.75
2019-03-16T16:36:45.190Z,10.75
2019-03-16T16:41:47.644Z,10.75
2019-03-16T16:46:49.695Z,10.79
2019-03-16T16:51:51.890Z,10.82
2019-03-16T16:56:53.974Z,10.77
2019-03-16T17:01:56.132Z,10.71
2019-03-16T17:06:58.566Z,10.70
2019-03-16T17:12:00.607Z,10.68
2019-03-16T17:17:02.949Z,10.63
2019-03-16T17:22:05.011Z,10.62
2019-03-16T17:27:08.646Z,10.60
2019-03-16T17:32:12.996Z,10.57
2019-03-16T17:37:15.717Z,10.59
2019-03-16T17:42:17.733Z,10.62
2019-03-16T17:47:20.715Z,10.61
2019-03-16T17:52:22.778Z,10.63
2019-03-16T17:57:24.856Z,10.60
2019-03-16T18:02:27.968Z,10.64
2019-03-16T18:07:30.439Z,10.63
2019-03-16T18:12:33.152Z,10.60
2019-03-16T18:17:35.369Z,10.66
2019-03-16T18:22:37.863Z,10.66
2019-03-16T18:27:40.454Z,10.54
2019-03-16T18:32:42.559Z,10.62
2019-03-16T18:37:45.054Z,10.60
2019-03-16T18:42:47.555Z,10.58
2019-03-16T18:47:49.847Z,10.56
2019-03-16T18:52:52.080Z,10.41
2019-03-16T18:57:56.778Z,10.24
2019-03-16T19:02:58.826Z,10.24
2019-03-16T19:08:01.145Z,10.17
2019-03-16T19:13:03.212Z,10.12
2019-03-16T19:18:05.834Z,10.08
2019-03-16T19:23:08.122Z,9.99
2019-03-16T19:28:10.374Z,9.88
2019-03-16T19:33:12.806Z,9.90
2019-03-16T19:38:16.997Z,9.90
2019-03-16T19:43:19.392Z,9.83
2019-03-16T19:48:22.074Z,9.89
2019-03-16T19:53:24.226Z,9.92
2019-03-16T19:58:26.397Z,9.99
2019-03-16T20:03:28.585Z,10.00
2019-03-16T20:08:30.633Z,10.00
2019-03-16T20:13:33.065Z,9.94
2019-03-16T20:18:35.171Z,9.94
2019-03-16T20:23:37.343Z,9.95
2019-03-16T20:28:39.382Z,9.95
2019-03-16T20:33:41.492Z,9.93
2019-03-16T20:38:43.580Z,9.88
2019-03-16T20:43:45.689Z,9.81
2019-03-16T20:48:48.019Z,9.77
2019-03-16T20:53:50.195Z,9.71
2019-03-16T20:58:52.387Z,9.59
2019-03-16T21:03:54.396Z,9.59
2019-03-16T21:09:03.192Z,9.53
2019-03-16T21:14:00.855Z,9.53
2019-03-16T21:19:03.085Z,9.53
2019-03-16T21:24:07.429Z,9.33
2019-03-16T21:29:09.446Z,9.32
2019-03-16T21:34:11.551Z,9.26
2019-03-16T21:39:16.846Z,9.21
2019-03-16T21:44:18.214Z,9.12
2019-03-16T21:49:20.513Z,9.16
2019-03-16T21:54:22.591Z,9.06
2019-03-16T21:59:26.367Z,9.00
2019-03-16T22:04:28.890Z,9.00
2019-03-16T22:09:31.065Z,8.94
2019-03-16T22:14:33.127Z,8.89
2019-03-16T22:19:35.258Z,8.87
2019-03-16T22:24:37.672Z,8.90
2019-03-16T22:29:39.758Z,8.88
2019-03-16T22:34:41.900Z,8.96
2019-03-16T22:39:44.069Z,8.90
2019-03-16T22:44:46.162Z,8.98
2019-03-16T22:49:48.305Z,9.03
2019-03-16T22:54:50.456Z,9.06
2019-03-16T22:59:52.737Z,9.12
2019-03-16T23:04:54.781Z,9.12
2019-03-16T23:09:56.888Z,9.11
2019-03-16T23:14:58.943Z,9.16
2019-03-16T23:20:03.573Z,9.22
2019-03-16T23:25:05.722Z,9.24
2019-03-16T23:30:08.785Z,9.34
2019-03-16T23:35:10.883Z,9.32
2019-03-16T23:40:13.240Z,9.36
2019-03-16T23:45:15.757Z,9.51
2019-03-16T23:50:17.902Z,9.41
2019-03-16T23:55:20.004Z,9.44
